Time;durP1;ratioP1;P1;durP2;ratioP2;P2;SDS_P1;SDS_P2;PMS_P1;PMS_P2;Temp;Humidity;BMP_temperature;BMP_pressure;BME280_temperature;BME280_humidity;BME280_pressure;Samples;Min_cycle;Max_cycle;Signal;HPM_P1;HPM_P2
2023/09/14 00:00:29;;;;;;;16.45;2.58;;;;;;;-144.73;100.00;54539.06;5054994;28;20114;-70
2023/09/14 00:02:55;;;;;;;14.05;3.30;;;;;;;-144.73;100.00;54551.38;5045899;28;20085;-70
2023/09/14 00:05:20;;;;;;;19.00;2.88;;;;;;;-144.73;100.00;54539.06;5053214;28;20032;-70
2023/09/14 00:07:46;;;;;;;13.82;2.95;;;;;;;-144.73;100.00;54555.47;5037769;28;20029;-70
2023/09/14 00:10:11;;;;;;;13.15;2.72;;;;;;;-144.73;100.00;54555.47;5047920;28;20108;-70
2023/09/14 00:12:37;;;;;;;8.30;2.72;;;;;;;-144.73;100.00;54563.69;5040729;28;20037;-71
2023/09/14 00:15:03;;;;;;;12.18;3.05;;;;;;;-144.73;100.00;54541.13;5039589;28;20033;-70
2023/09/14 00:17:28;;;;;;;18.33;2.63;;;;;;;-144.73;100.00;54510.31;5043690;28;20032;-70
2023/09/14 00:19:54;;;;;;;18.83;2.75;;;;;;;-144.73;100.00;54543.16;5048229;28;20029;-70
2023/09/14 00:22:19;;;;;;;18.55;4.13;;;;;;;-144.73;100.00;54530.84;5055077;28;20033;-70
2023/09/14 00:24:44;;;;;;;14.48;3.03;;;;;;;-144.73;100.00;54524.69;5053143;28;20090;-70
2023/09/14 00:27:10;;;;;;;15.40;3.00;;;;;;;-144.73;100.00;54506.22;5053412;28;20071;-70
2023/09/14 00:29:35;;;;;;;12.07;3.00;;;;;;;-144.73;100.00;54543.16;5045316;28;20049;-70
2023/09/14 00:32:01;;;;;;;22.63;3.03;;;;;;;-144.73;100.00;54510.31;5049656;28;20045;-70
2023/09/14 00:34:26;;;;;;;12.93;2.63;;;;;;;-144.73;100.00;54526.75;5053295;28;20064;-70
2023/09/14 00:36:52;;;;;;;9.38;2.63;;;;;;;-144.73;100.00;54547.28;5046830;28;20040;-71
2023/09/14 00:39:17;;;;;;;13.85;3.03;;;;;;;-144.73;100.00;54539.06;5041728;28;20021;-70
2023/09/14 00:41:43;;;;;;;8.90;2.08;;;;;;;-144.73;100.00;54539.06;5042715;28;20037;-70
2023/09/14 00:44:08;;;;;;;10.82;2.13;;;;;;;-144.73;100.00;54530.84;5042795;28;20021;-69
2023/09/14 00:46:34;;;;;;;18.55;2.95;;;;;;;-144.73;100.00;54539.06;5032501;28;20106;-70
2023/09/14 00:49:01;;;;;;;13.73;2.88;;;;;;;-144.73;100.00;54506.22;5051152;28;20017;-71
2023/09/14 00:51:27;;;;;;;11.48;2.63;;;;;;;-144.73;100.00;54604.75;5032197;28;20061;-70
2023/09/14 00:53:54;;;;;;;13.13;3.10;;;;;;;-144.73;100.00;54522.63;5044034;28;20026;-70
2023/09/14 00:56:20;;;;;;;19.70;2.75;;;;;;;-144.73;100.00;54539.06;5039474;28;20091;-70
2023/09/14 00:58:47;;;;;;;12.40;2.85;;;;;;;-144.73;100.00;54510.31;5041222;28;20502;-71
2023/09/14 01:01:14;;;;;;;9.48;2.90;;;;;;;-144.73;100.00;54547.28;5042783;28;20030;-70
2023/09/14 01:03:40;;;;;;;7.78;2.17;;;;;;;-144.73;100.00;54485.69;5047163;28;20465;-70
2023/09/14 01:06:06;;;;;;;14.32;2.22;;;;;;;-144.73;100.00;54510.31;5041891;28;20041;-70
2023/09/14 01:08:32;;;;;;;14.30;2.33;;;;;;;-144.73;100.00;54498.00;5050713;28;20025;-70
2023/09/14 01:10:58;;;;;;;11.52;2.80;;;;;;;-144.73;100.00;54498.00;5061726;28;20049;-71
2023/09/14 01:13:45;;;;;;;16.88;2.25;;;;;;;-144.73;100.00;54547.28;5049355;28;20032;-70
2023/09/14 01:16:19;;;;;;;8.75;2.53;;;;;;;-144.73;100.00;54518.53;5039820;28;20049;-70
2023/09/14 01:18:59;;;;;;;22.25;2.58;;;;;;;-144.73;100.00;54510.31;5050117;28;20022;-70
2023/09/14 01:21:56;;;;;;;14.57;2.92;;;;;;;-144.73;100.00;54539.06;5019007;28;20045;-70
2023/09/14 01:24:40;;;;;;;15.35;2.90;;;;;;;-144.73;100.00;54493.91;5048214;28;20018;-70
2023/09/14 01:27:07;;;;;;;7.78;2.30;;;;;;;-144.73;100.00;54547.28;5027964;28;20042;-70
2023/09/14 01:29:33;;;;;;;11.60;2.40;;;;;;;-144.73;100.00;54514.44;5042389;28;20021;-70
2023/09/14 01:31:58;;;;;;;10.23;2.67;;;;;;;-144.73;100.00;54555.47;5038254;28;20045;-70
2023/09/14 01:34:24;;;;;;;10.48;2.60;;;;;;;-144.73;100.00;54526.75;5037741;28;20021;-70
2023/09/14 01:36:55;;;;;;;8.23;2.03;;;;;;;-144.73;100.00;54543.16;5020973;28;20066;-70
2023/09/14 01:39:22;;;;;;;;;;;;;;;-144.73;100.00;54543.16;5046865;28;20083;-70
2023/09/14 01:41:54;;;;;;;10.45;2.78;;;;;;;-144.73;100.00;54516.47;5030056;28;19917;-70
2023/09/14 01:44:25;;;;;;;10.98;2.08;;;;;;;-144.73;100.00;54543.16;5041528;28;20021;-70
2023/09/14 01:46:51;;;;;;;16.88;3.30;;;;;;;-144.73;100.00;54547.28;5039987;28;20037;-70
2023/09/14 01:49:17;;;;;;;10.27;2.67;;;;;;;-144.73;100.00;54563.69;5042142;28;20051;-70
2023/09/14 01:51:42;;;;;;;17.92;2.67;;;;;;;-144.73;100.00;54522.63;5039540;28;20503;-70
2023/09/14 01:54:08;;;;;;;16.33;2.50;;;;;;;-144.73;100.00;54539.06;5037815;28;20021;-70
2023/09/14 01:56:33;;;;;;;11.68;3.38;;;;;;;-144.73;100.00;54551.38;5045256;28;20042;-70
2023/09/14 01:58:59;;;;;;;13.60;2.78;;;;;;;-144.73;100.00;54510.31;5040428;28;20090;-70
2023/09/14 02:01:24;;;;;;;13.48;2.85;;;;;;;-144.73;100.00;54530.84;5034749;28;20033;-70
2023/09/14 02:03:50;;;;;;;16.75;2.80;;;;;;;-144.73;100.00;54559.59;5040062;28;20032;-70
2023/09/14 02:06:15;;;;;;;16.33;2.63;;;;;;;-144.73;100.00;54604.75;5047198;28;20120;-71
2023/09/14 02:08:41;;;;;;;6.80;2.13;;;;;;;-144.73;100.00;54567.81;5039910;28;20026;-70
2023/09/14 02:11:07;;;;;;;14.70;2.97;;;;;;;-144.73;100.00;54522.63;5037161;28;20110;-70
2023/09/14 02:13:34;;;;;;;12.57;2.40;;;;;;;-144.73;100.00;54522.63;5044343;28;20029;-70
2023/09/14 02:16:00;;;;;;;11.93;2.42;;;;;;;-144.73;100.00;54493.91;5045832;28;20384;-70
2023/09/14 02:18:26;;;;;;;14.27;2.85;;;;;;;-144.73;100.00;54522.63;5041120;28;20021;-70
2023/09/14 02:20:51;;;;;;;19.27;3.42;;;;;;;-144.73;100.00;54571.91;5056400;28;20056;-70
2023/09/14 02:23:18;;;;;;;6.68;2.50;;;;;;;-144.73;100.00;54498.00;5049281;28;20025;-70
2023/09/14 02:25:44;;;;;;;14.07;2.35;;;;;;;-144.73;100.00;54522.63;5045728;28;20025;-70
2023/09/14 02:28:10;;;;;;;10.55;2.50;;;;;;;-144.73;100.00;54563.69;5053492;28;20024;-70
2023/09/14 02:30:39;;;;;;;13.68;2.38;;;;;;;-144.73;100.00;54559.59;5043770;28;20029;-70
2023/09/14 02:33:06;;;;;;;10.63;2.25;;;;;;;-144.73;100.00;54530.84;5041880;28;20036;-70
2023/09/14 02:35:32;;;;;;;18.73;2.75;;;;;;;-144.73;100.00;54522.63;5039177;28;20041;-71
2023/09/14 02:37:57;;;;;;;11.80;2.78;;;;;;;-144.73;100.00;54543.16;5045025;28;20026;-71
2023/09/14 02:40:23;;;;;;;5.28;2.42;;;;;;;-144.73;100.00;54504.16;5028438;28;20093;-70
2023/09/14 02:42:48;;;;;;;4.75;2.45;;;;;;;-144.73;100.00;54543.16;5035908;28;20026;-70
2023/09/14 02:45:14;;;;;;;10.73;2.65;;;;;;;-144.73;100.00;54481.59;5048485;28;20032;-70
2023/09/14 02:47:40;;;;;;;15.05;3.67;;;;;;;-144.73;100.00;54604.75;5045470;28;20025;-71
2023/09/14 02:50:05;;;;;;;11.85;2.65;;;;;;;-144.73;100.00;54571.91;5042729;28;20037;-70
2023/09/14 02:52:31;;;;;;;16.40;2.53;;;;;;;-144.73;100.00;54580.13;5044477;28;20022;-70
2023/09/14 02:54:56;;;;;;;8.93;2.45;;;;;;;-144.73;100.00;54524.69;5049788;28;20096;-70
2023/09/14 02:57:21;;;;;;;7.80;2.40;;;;;;;-144.73;100.00;54551.38;5040755;28;20105;-70
2023/09/14 02:59:47;;;;;;;14.40;2.58;;;;;;;-144.73;100.00;54502.13;5052352;28;20029;-70
2023/09/14 03:02:12;;;;;;;9.15;3.03;;;;;;;-144.73;100.00;54524.69;5039520;28;20029;-70
2023/09/14 03:04:38;;;;;;;12.05;3.17;;;;;;;-144.73;100.00;54547.28;5043788;28;20021;-70
2023/09/14 03:07:03;;;;;;;12.05;2.80;;;;;;;-144.73;100.00;54506.22;5036976;28;20042;-70
2023/09/14 03:09:29;;;;;;;8.43;2.60;;;;;;;-144.73;100.00;54582.16;5037468;28;20045;-70
2023/09/14 03:11:54;;;;;;;9.63;2.70;;;;;;;-144.73;100.00;54539.06;5046747;28;20036;-70
2023/09/14 03:14:20;;;;;;;14.38;3.38;;;;;;;-144.73;100.00;54522.63;5040236;28;20150;-71
2023/09/14 03:16:45;;;;;;;10.27;2.33;;;;;;;-144.73;100.00;54528.81;5051385;28;20090;-70
2023/09/14 03:19:11;;;;;;;13.30;2.60;;;;;;;-144.73;100.00;54543.16;5037522;28;20037;-70
2023/09/14 03:21:36;;;;;;;10.02;2.50;;;;;;;-144.73;100.00;54559.59;5036512;28;20037;-70
2023/09/14 03:24:02;;;;;;;10.00;2.30;;;;;;;-144.73;100.00;54549.31;5051125;28;20036;-70
2023/09/14 03:26:27;;;;;;;9.35;2.55;;;;;;;-144.73;100.00;54522.63;5037105;28;20036;-70
2023/09/14 03:28:53;;;;;;;13.82;2.75;;;;;;;-144.73;100.00;54559.59;5048468;28;20017;-70
2023/09/14 03:31:19;;;;;;;13.82;2.67;;;;;;;-144.73;100.00;54528.81;5047730;28;20029;-70
2023/09/14 03:33:49;;;;;;;9.32;2.35;;;;;;;-144.73;100.00;54522.63;5046736;28;20029;-70
2023/09/14 03:36:16;;;;;;;12.98;2.40;;;;;;;-144.73;100.00;54547.28;5044192;28;20109;-70
2023/09/14 03:38:41;;;;;;;7.93;2.70;;;;;;;-144.73;100.00;54506.22;5043419;28;20024;-70
2023/09/14 03:41:06;;;;;;;11.35;2.50;;;;;;;-144.73;100.00;54563.69;5045527;28;20030;-70
2023/09/14 03:43:32;;;;;;;12.07;2.35;;;;;;;-144.73;100.00;54504.16;5050533;28;20025;-70
2023/09/14 03:45:57;;;;;;;11.65;3.13;;;;;;;-144.73;100.00;54547.28;5051777;28;20025;-70
2023/09/14 03:48:23;;;;;;;11.43;2.35;;;;;;;-144.73;100.00;54502.13;5043983;28;20030;-70
2023/09/14 03:50:48;;;;;;;9.35;2.88;;;;;;;-144.73;100.00;54514.44;5043311;28;20107;-70
2023/09/14 03:53:14;;;;;;;7.25;2.40;;;;;;;-144.73;100.00;54604.75;5046747;28;20357;-70
2023/09/14 03:55:40;;;;;;;7.05;2.55;;;;;;;-144.73;100.00;54551.38;5043015;28;20021;-70
2023/09/14 03:58:05;;;;;;;12.85;3.25;;;;;;;-144.73;100.00;54555.47;5052875;28;20021;-70
2023/09/14 04:00:31;;;;;;;8.85;2.67;;;;;;;-144.73;100.00;54543.16;5055014;28;20403;-70
2023/09/14 04:02:56;;;;;;;13.05;3.20;;;;;;;-144.73;100.00;54543.16;5049983;28;20071;-70
2023/09/14 04:05:22;;;;;;;9.55;2.35;;;;;;;-144.73;100.00;54539.06;5042827;28;20033;-70
2023/09/14 04:07:48;;;;;;;11.45;2.60;;;;;;;-144.73;100.00;54559.59;5048702;28;20100;-70
2023/09/14 04:10:14;;;;;;;10.52;2.97;;;;;;;-144.73;100.00;54561.63;5042544;28;20036;-70
2023/09/14 04:12:41;;;;;;;22.02;3.00;;;;;;;-144.73;100.00;54584.22;5045233;28;20125;-71
2023/09/14 04:15:07;;;;;;;12.00;3.30;;;;;;;-144.73;100.00;54547.28;5046498;28;20047;-69
2023/09/14 04:17:34;;;;;;;7.70;2.53;;;;;;;-144.73;100.00;54551.38;5056801;28;20021;-70
2023/09/14 04:20:00;;;;;;;8.77;2.85;;;;;;;-144.73;100.00;54547.28;5046374;28;20037;-71
2023/09/14 04:22:25;;;;;;;10.40;3.10;;;;;;;-144.73;100.00;54522.63;5046487;28;20029;-71
2023/09/14 04:24:51;;;;;;;15.50;3.10;;;;;;;-144.73;100.00;54584.22;5049409;28;20081;-70
2023/09/14 04:27:16;;;;;;;13.05;3.28;;;;;;;-144.73;100.00;54520.59;5049988;28;20021;-71
2023/09/14 04:29:43;;;;;;;5.72;2.47;;;;;;;-144.73;100.00;54506.22;5042975;28;20120;-70
2023/09/14 04:32:09;;;;;;;7.78;3.00;;;;;;;-144.73;100.00;54559.59;5057043;28;20025;-71
2023/09/14 04:34:34;;;;;;;8.38;2.47;;;;;;;-144.73;100.00;54547.28;5039902;28;20033;-70
2023/09/14 04:37:00;;;;;;;5.50;2.95;;;;;;;-144.73;100.00;54522.63;5043255;28;20037;-70
2023/09/14 04:39:26;;;;;;;7.50;2.95;;;;;;;-144.73;100.00;54539.06;5045731;28;20035;-70
2023/09/14 04:41:51;;;;;;;15.32;3.13;;;;;;;-144.73;100.00;54528.81;5048049;28;20034;-70
2023/09/14 04:44:17;;;;;;;15.60;3.10;;;;;;;-144.73;100.00;54518.53;5039745;28;20029;-71
2023/09/14 04:46:42;;;;;;;15.63;3.13;;;;;;;-144.73;100.00;54498.00;5045095;28;20036;-70
2023/09/14 04:49:07;;;;;;;16.25;3.33;;;;;;;-144.73;100.00;54541.13;5050009;28;20028;-70
2023/09/14 04:51:33;;;;;;;15.52;3.28;;;;;;;-144.73;100.00;54522.63;5045769;28;20588;-70
2023/09/14 04:53:59;;;;;;;18.55;3.90;;;;;;;-144.73;100.00;54518.53;5045567;28;20460;-70
2023/09/14 04:56:24;;;;;;;14.30;4.00;;;;;;;-144.73;100.00;54522.63;5044861;28;20131;-70
2023/09/14 04:58:50;;;;;;;11.55;2.92;;;;;;;-144.73;100.00;54539.06;5044180;28;20060;-71
2023/09/14 05:01:17;;;;;;;10.23;3.00;;;;;;;-144.73;100.00;54555.47;5070460;28;20063;-70
2023/09/14 05:03:42;;;;;;;14.57;4.05;;;;;;;-144.73;100.00;54547.28;5049897;28;20044;-70
2023/09/14 05:06:08;;;;;;;8.13;2.63;;;;;;;-144.73;100.00;54547.28;5049976;28;20029;-70
2023/09/14 05:08:33;;;;;;;11.48;3.05;;;;;;;-144.73;100.00;54502.13;5050157;28;20058;-70
2023/09/14 05:10:59;;;;;;;12.88;3.42;;;;;;;-144.73;100.00;54549.31;5039253;28;20125;-71
2023/09/14 05:13:24;;;;;;;11.02;3.25;;;;;;;-144.73;100.00;54551.38;5073015;28;20064;-70
2023/09/14 05:15:50;;;;;;;9.75;3.92;;;;;;;-144.73;100.00;54539.06;5040335;28;20033;-70
2023/09/14 05:18:16;;;;;;;10.82;3.78;;;;;;;-144.73;100.00;54543.16;5053712;28;20021;-70
2023/09/14 05:20:43;;;;;;;11.93;3.47;;;;;;;-144.73;100.00;54539.06;5042611;28;20037;-70
2023/09/14 05:23:08;;;;;;;8.77;3.08;;;;;;;-144.73;100.00;54539.06;5042821;28;20049;-70
2023/09/14 05:25:34;;;;;;;10.50;3.42;;;;;;;-144.73;100.00;54539.06;5032132;28;20037;-70
2023/09/14 05:28:00;;;;;;;16.08;3.92;;;;;;;-144.73;100.00;54543.16;5048227;28;20033;-70
2023/09/14 05:30:25;;;;;;;14.45;3.40;;;;;;;-144.73;100.00;54508.28;5043195;28;20035;-70
2023/09/14 05:32:51;;;;;;;8.95;4.07;;;;;;;-144.73;100.00;54561.63;5048047;28;20029;-70
2023/09/14 05:35:16;;;;;;;18.90;4.07;;;;;;;-144.73;100.00;54514.44;5038054;28;20038;-70
2023/09/14 05:37:42;;;;;;;8.32;3.00;;;;;;;-144.73;100.00;54522.63;5032543;28;20037;-70
2023/09/14 05:40:11;;;;;;;10.30;2.97;;;;;;;-144.73;100.00;54539.06;5044464;28;20040;-70
2023/09/14 05:42:38;;;;;;;11.40;3.65;;;;;;;-144.73;100.00;54539.06;5045711;28;20021;-70
2023/09/14 05:45:13;;;;;;;13.18;4.40;;;;;;;-144.73;100.00;54489.81;5038286;28;20492;-70
2023/09/14 05:47:38;;;;;;;14.65;3.47;;;;;;;-144.73;100.00;54524.69;5047903;28;20021;-71
2023/09/14 05:50:06;;;;;;;11.27;3.30;;;;;;;-144.73;100.00;54514.44;5050922;28;20036;-71
2023/09/14 05:52:32;;;;;;;15.45;3.50;;;;;;;-144.73;100.00;54555.47;5051608;28;20037;-70
2023/09/14 05:54:57;;;;;;;9.60;3.95;;;;;;;-144.73;100.00;54518.53;5038817;28;20052;-71
2023/09/14 05:57:23;;;;;;;17.95;3.83;;;;;;;-144.73;100.00;54576.00;5027665;28;20064;-71
2023/09/14 05:59:48;;;;;;;10.45;2.90;;;;;;;-144.73;100.00;54563.69;5051348;28;20080;-70
2023/09/14 06:02:14;;;;;;;10.35;3.40;;;;;;;-144.73;100.00;54522.63;5040516;28;20027;-70
2023/09/14 06:04:40;;;;;;;14.38;3.35;;;;;;;-144.73;100.00;54500.06;5054165;28;20032;-71
2023/09/14 06:07:05;;;;;;;11.70;3.08;;;;;;;-144.73;100.00;54576.00;5049349;28;20021;-71
2023/09/14 06:09:31;;;;;;;8.93;3.28;;;;;;;-144.73;100.00;54522.63;5054989;28;20021;-70
2023/09/14 06:11:56;;;;;;;9.05;3.05;;;;;;;-144.73;100.00;54539.06;5046744;28;20029;-71
2023/09/14 06:14:22;;;;;;;16.92;3.95;;;;;;;-144.73;100.00;54543.16;5045592;28;20025;-70
2023/09/14 06:16:47;;;;;;;12.45;3.03;;;;;;;-144.73;100.00;54539.06;5042351;28;20034;-71
2023/09/14 06:19:13;;;;;;;6.93;2.55;;;;;;;-144.73;100.00;54539.06;5043706;28;20021;-70
2023/09/14 06:21:38;;;;;;;14.35;4.60;;;;;;;-144.73;100.00;54551.38;5042299;28;20033;-70
2023/09/14 06:24:04;;;;;;;14.88;4.45;;;;;;;-144.73;100.00;54551.38;5042745;28;20032;-71
2023/09/14 06:26:30;;;;;;;7.35;3.17;;;;;;;-144.73;100.00;54524.69;5053851;28;20034;-70
2023/09/14 06:28:56;;;;;;;9.00;2.63;;;;;;;-144.73;100.00;54539.06;5046999;28;20021;-71
2023/09/14 06:31:25;;;;;;;6.60;2.15;;;;;;;-144.73;100.00;54559.59;5043754;28;20061;-70
2023/09/14 06:33:50;;;;;;;9.75;2.10;;;;;;;-144.73;100.00;54565.75;5044688;28;20027;-71
2023/09/14 06:36:18;;;;;;;9.48;2.53;;;;;;;-144.73;100.00;54524.69;5046270;28;20127;-71
2023/09/14 06:38:48;;;;;;;16.70;2.72;;;;;;;-144.73;100.00;54502.13;5053076;28;20100;-71
2023/09/14 06:41:15;;;;;;;9.82;2.10;;;;;;;-144.73;100.00;54555.47;5049740;28;20041;-71
2023/09/14 06:43:42;;;;;;;8.38;2.20;;;;;;;-144.73;100.00;54485.69;5051305;28;20135;-71
2023/09/14 06:46:11;;;;;;;12.25;2.35;;;;;;;-144.73;100.00;54543.16;5046418;28;20049;-71
2023/09/14 06:48:38;;;;;;;12.07;2.58;;;;;;;-144.73;100.00;54559.59;5052275;28;20020;-71
2023/09/14 06:51:04;;;;;;;12.57;2.45;;;;;;;-144.73;100.00;54543.16;5041888;28;20038;-70
2023/09/14 06:53:30;;;;;;;10.77;2.90;;;;;;;-144.73;100.00;54543.16;5043868;28;20025;-70
2023/09/14 06:55:55;;;;;;;9.30;2.65;;;;;;;-144.73;100.00;54502.13;5041429;28;20041;-71
2023/09/14 06:58:21;;;;;;;14.00;2.65;;;;;;;-144.73;100.00;54551.38;5044035;28;20052;-71
2023/09/14 07:00:46;;;;;;;11.88;2.22;;;;;;;-144.73;100.00;54498.00;5044301;28;20038;-71
2023/09/14 07:03:11;;;;;;;8.45;2.40;;;;;;;-144.73;100.00;54563.69;5051468;28;20022;-70
2023/09/14 07:05:37;;;;;;;14.32;2.88;;;;;;;-144.73;100.00;54530.84;5047110;28;20038;-71
2023/09/14 07:08:03;;;;;;;9.48;2.40;;;;;;;-144.73;100.00;54549.31;5041382;28;20092;-71
2023/09/14 07:10:29;;;;;;;12.15;3.60;;;;;;;-144.73;100.00;54512.38;5036995;28;20025;-71
2023/09/14 07:12:55;;;;;;;11.15;2.97;;;;;;;-144.73;100.00;54522.63;5047972;28;20060;-71
2023/09/14 07:15:21;;;;;;;12.60;2.95;;;;;;;-144.73;100.00;54545.22;5059794;28;20032;-71
2023/09/14 07:17:46;;;;;;;7.35;2.30;;;;;;;-144.73;100.00;54489.81;5044080;28;20017;-71
2023/09/14 07:20:12;;;;;;;4.05;2.30;;;;;;;-144.73;100.00;54528.81;5047886;28;20052;-71
2023/09/14 07:22:37;;;;;;;5.35;1.83;;;;;;;-144.73;100.00;54539.06;5049742;28;20025;-71
2023/09/14 07:25:04;;;;;;;15.07;2.75;;;;;;;-144.73;100.00;54510.31;5040743;28;20083;-71
2023/09/14 07:27:30;;;;;;;6.32;2.13;;;;;;;-144.73;100.00;54506.22;5040139;28;20108;-71
2023/09/14 07:29:55;;;;;;;8.95;2.40;;;;;;;-144.73;100.00;54502.13;5043368;28;20040;-70
2023/09/14 07:32:21;;;;;;;4.15;1.65;;;;;;;-144.73;100.00;54539.06;5049027;28;20052;-71
2023/09/14 07:34:46;;;;;;;9.32;2.50;;;;;;;-144.73;100.00;54502.13;5051409;28;20032;-71
2023/09/14 07:37:12;;;;;;;12.20;3.42;;;;;;;-144.73;100.00;54481.59;5050789;28;20016;-71
2023/09/14 07:39:37;;;;;;;11.68;2.17;;;;;;;-144.73;100.00;54473.38;5050594;28;20020;-70
2023/09/14 07:42:02;;;;;;;6.13;1.83;;;;;;;-144.73;100.00;54456.97;5047273;28;20152;-71
2023/09/14 07:44:28;;;;;;;20.60;2.78;;;;;;;-144.73;100.00;54469.28;5041753;28;20017;-71
2023/09/14 07:46:53;;;;;;;19.55;3.33;;;;;;;-144.73;100.00;54467.22;5054940;28;20037;-71
2023/09/14 07:49:19;;;;;;;18.20;2.92;;;;;;;-144.73;100.00;54498.00;5042052;28;20029;-71
2023/09/14 07:51:44;;;;;;;10.80;2.35;;;;;;;-144.73;98.15;54481.59;5030444;28;20112;-71
2023/09/14 07:54:09;;;;;;;14.55;2.33;;;;;;;-144.73;93.66;54567.81;5049171;28;20033;-70
2023/09/14 07:56:35;;;;;;;29.13;3.78;;;;;;;-144.73;93.84;54514.44;5043179;28;20044;-71
2023/09/14 07:59:00;;;;;;;13.52;2.85;;;;;;;-144.73;95.02;54514.44;5036929;28;20018;-70
2023/09/14 08:01:26;;;;;;;9.93;2.30;;;;;;;-144.73;93.77;54456.97;5046005;28;20171;-71
2023/09/14 08:03:51;;;;;;;8.65;1.52;;;;;;;-144.73;92.61;54498.00;5049750;28;20107;-71
2023/09/14 08:06:18;;;;;;;4.63;1.55;;;;;;;-144.73;92.81;54485.69;5037394;28;20030;-70
2023/09/14 08:08:45;;;;;;;11.68;2.50;;;;;;;-144.73;89.16;54491.84;5027304;28;20032;-71
2023/09/14 08:11:11;;;;;;;7.65;2.70;;;;;;;-144.73;90.50;54461.06;5041150;28;20037;-71
2023/09/14 08:13:36;;;;;;;12.25;4.30;;;;;;;-144.73;88.26;54483.66;5046539;28;20028;-71
2023/09/14 08:16:03;;;;;;;7.10;1.92;;;;;;;-144.73;86.73;54485.69;5035024;28;20033;-71
2023/09/14 08:18:29;;;;;;;6.72;1.85;;;;;;;-144.73;85.17;54502.13;5043715;28;20040;-71
2023/09/14 08:20:54;;;;;;;6.68;1.95;;;;;;;-144.73;83.78;54508.28;5046587;28;20048;-71
2023/09/14 08:23:20;;;;;;;11.43;1.70;;;;;;;-144.73;83.11;54485.69;5043982;28;20025;-71
2023/09/14 08:25:48;;;;;;;10.45;1.60;;;;;;;-144.73;84.46;54514.44;5051145;28;20029;-71
2023/09/14 08:28:17;;;;;;;9.13;1.77;;;;;;;-144.73;83.49;54510.31;5036490;28;20112;-71
2023/09/14 08:30:44;;;;;;;7.32;1.80;;;;;;;-144.73;82.43;54465.16;5042700;28;20044;-71
2023/09/14 08:33:10;;;;;;;5.30;1.83;;;;;;;-144.73;83.08;54444.66;5032633;28;20075;-71
2023/09/14 08:35:37;;;;;;;6.15;1.55;;;;;;;-144.73;78.76;54514.44;5047821;28;20029;-70
2023/09/14 08:38:06;;;;;;;10.45;2.28;;;;;;;-144.73;77.76;54465.16;5038029;28;20025;-71
2023/09/14 08:40:33;;;;;;;10.38;2.50;;;;;;;-144.73;76.39;54465.16;5043548;28;20105;-70
2023/09/14 08:43:00;;;;;;;9.48;2.22;;;;;;;-144.73;73.61;54487.75;5042645;28;20041;-71
2023/09/14 08:45:31;;;;;;;5.78;1.67;;;;;;;-144.73;72.82;54481.59;5038985;28;20044;-70
2023/09/14 08:47:58;;;;;;;10.85;2.50;;;;;;;-144.73;75.67;54518.53;5048820;28;20018;-70
2023/09/14 08:50:26;;;;;;;8.82;1.90;;;;;;;-144.73;75.25;54514.44;5040832;28;20120;-70
2023/09/14 08:52:53;;;;;;;12.32;2.17;;;;;;;-144.73;73.50;54465.16;5048735;28;20025;-71
2023/09/14 08:55:20;;;;;;;5.68;1.63;;;;;;;-144.73;71.02;54481.59;5043697;28;20040;-71
2023/09/14 08:57:47;;;;;;;12.57;2.33;;;;;;;-144.73;68.96;54454.91;5040406;28;20539;-71
2023/09/14 09:00:17;;;;;;;6.82;1.90;;;;;;;-144.73;68.25;54465.16;5037408;28;20065;-70
2023/09/14 09:02:48;;;;;;;12.38;2.15;;;;;;;-144.73;65.16;54500.06;5043135;28;20018;-70
2023/09/14 09:05:15;;;;;;;10.68;3.60;;;;;;;-144.73;66.69;54467.22;5042265;28;20029;-70
2023/09/14 09:07:42;;;;;;;8.10;2.28;;;;;;;-144.73;66.49;54465.16;5039704;28;20056;-71
2023/09/14 09:10:15;;;;;;;8.45;2.00;;;;;;;-144.73;66.25;54479.53;5046315;28;20048;-70
2023/09/14 09:12:40;;;;;;;4.40;1.40;;;;;;;-144.73;65.83;54448.75;5046943;28;20027;-70
2023/09/14 09:15:07;;;;;;;3.85;1.55;;;;;;;-144.73;62.95;54456.97;5040215;28;20117;-71
2023/09/14 09:17:38;;;;;;;7.97;1.88;;;;;;;-144.73;60.02;54481.59;5042591;28;20246;-71
2023/09/14 09:20:12;;;;;;;9.20;1.58;;;;;;;-144.73;61.71;54463.13;5040516;28;20044;-71
2023/09/14 09:22:43;;;;;;;9.18;1.60;;;;;;;-144.73;62.73;54461.06;5037213;28;20116;-71
2023/09/14 09:25:10;;;;;;;9.15;1.75;;;;;;;-144.73;62.48;54469.28;5045752;28;20108;-71
2023/09/14 09:27:35;;;;;;;6.20;1.10;;;;;;;-144.73;61.78;54452.84;5029865;28;20026;-71
2023/09/14 09:30:01;;;;;;;6.38;1.40;;;;;;;-144.73;62.30;54469.28;5040126;28;20034;-71
2023/09/14 09:32:26;;;;;;;10.88;1.55;;;;;;;-144.73;62.80;54448.75;5038280;28;20041;-71
2023/09/14 09:34:52;;;;;;;10.60;1.92;;;;;;;-144.73;63.75;54498.00;5040726;28;20056;-71
2023/09/14 09:37:17;;;;;;;7.22;2.80;;;;;;;-144.73;60.74;54424.13;5042076;28;20081;-71
2023/09/14 09:39:46;;;;;;;9.80;1.85;;;;;;;-144.73;59.64;54477.47;5039825;28;20439;-72
2023/09/14 09:42:19;;;;;;;11.32;1.30;;;;;;;-144.73;58.30;54452.84;5042814;28;20103;-71
2023/09/14 09:44:45;;;;;;;5.10;1.48;;;;;;;-144.73;59.53;54465.16;5039036;28;20045;-71
2023/09/14 09:47:12;;;;;;;10.05;1.63;;;;;;;-144.73;56.54;54452.84;5038047;28;20116;-72
2023/09/14 09:49:39;;;;;;;8.35;2.10;;;;;;;-144.73;58.62;54438.50;5034944;28;20157;-72
2023/09/14 09:52:09;;;;;;;5.80;1.40;;;;;;;-144.73;58.00;54407.69;5042270;28;20041;-71
2023/09/14 09:54:35;;;;;;;5.25;1.30;;;;;;;-144.73;59.47;54448.75;5037048;28;20116;-70
2023/09/14 09:57:03;;;;;;;10.88;1.63;;;;;;;-144.73;57.13;54444.66;5040336;28;20037;-71
2023/09/14 09:59:30;;;;;;;6.93;1.17;;;;;;;-144.73;58.38;54454.91;5043000;28;20078;-70
2023/09/14 10:01:56;;;;;;;5.35;1.77;;;;;;;-144.73;58.57;54448.75;5042135;28;21136;-71
2023/09/14 10:04:30;;;;;;;9.13;1.73;;;;;;;-144.73;57.62;54452.84;5041348;28;20024;-71
2023/09/14 10:06:55;;;;;;;3.33;1.30;;;;;;;-144.73;55.87;54440.53;5042396;28;20029;-71
2023/09/14 10:09:24;;;;;;;8.00;1.30;;;;;;;-144.73;54.63;54444.66;5034937;28;20468;-70
2023/09/14 10:11:50;;;;;;;7.07;1.67;;;;;;;-144.73;58.40;54448.75;5042758;28;20520;-71
2023/09/14 10:14:20;;;;;;;8.68;1.58;;;;;;;-144.73;56.78;54424.13;5049787;28;20025;-72
2023/09/14 10:16:49;;;;;;;7.47;1.35;;;;;;;-144.73;55.61;54436.44;5038314;28;20033;-70
2023/09/14 10:19:15;;;;;;;11.68;1.83;;;;;;;-144.73;54.83;54461.06;5044445;28;20033;-72
2023/09/14 10:21:41;;;;;;;8.27;1.42;;;;;;;-144.73;52.21;54485.69;5043107;28;20040;-71
2023/09/14 10:24:07;;;;;;;8.57;1.60;;;;;;;-144.73;56.18;54452.84;5046848;28;20025;-70
2023/09/14 10:26:36;;;;;;;8.13;1.50;;;;;;;-144.73;57.75;54461.06;5026990;28;20075;-70
2023/09/14 10:29:06;;;;;;;4.72;1.50;;;;;;;-144.73;60.01;54452.84;5018702;28;20025;-71
2023/09/14 10:31:32;;;;;;;10.48;2.00;;;;;;;-144.73;59.90;54491.84;5017925;28;20025;-70
2023/09/14 10:33:59;;;;;;;17.52;2.45;;;;;;;-144.73;53.99;54440.53;5021472;28;20029;-71
2023/09/14 10:36:30;;;;;;;7.38;0.98;;;;;;;-144.73;55.07;54424.13;5037915;28;20032;-71
2023/09/14 10:38:58;;;;;;;7.78;1.48;;;;;;;-144.73;52.73;54407.69;5039342;28;20029;-71
2023/09/14 10:41:23;;;;;;;5.88;1.55;;;;;;;-144.73;53.23;54440.53;5042372;28;20590;-71
2023/09/14 10:43:49;;;;;;;7.78;1.70;;;;;;;-144.73;53.05;54473.38;5030748;28;20029;-71
2023/09/14 10:46:21;;;;;;;6.32;1.20;;;;;;;-144.73;56.30;54448.75;5035889;28;20108;-70
2023/09/14 10:48:47;;;;;;;4.47;1.35;;;;;;;-144.73;57.00;54442.59;5035253;28;20023;-70
2023/09/14 10:51:13;;;;;;;5.60;1.30;;;;;;;-144.73;58.42;54465.16;5036334;28;20052;-70
2023/09/14 10:53:41;;;;;;;6.00;1.48;;;;;;;-144.73;56.98;54428.22;5036482;28;20033;-70
2023/09/14 10:56:19;;;;;;;5.50;1.20;;;;;;;-144.73;57.59;54420.00;5034919;28;20042;-70
2023/09/14 10:58:49;;;;;;;6.07;1.40;;;;;;;-144.73;55.19;54415.91;5036168;28;20030;-70
2023/09/14 11:01:23;;;;;;;5.03;1.63;;;;;;;-144.73;53.66;54411.81;5035744;28;20038;-70
2023/09/14 11:04:06;;;;;;;11.95;1.65;;;;;;;-144.73;52.74;54450.81;5035464;28;20075;-70